Time;durP1;ratioP1;P1;durP2;ratioP2;P2;SDS_P1;SDS_P2;PMS_P1;PMS_P2;Temp;Humidity;BMP_temperature;BMP_pressure;BME280_temperature;BME280_humidity;BME280_pressure;Samples;Min_cycle;Max_cycle;Signal;HPM_P1;HPM_P2
2022/05/15 00:01:40;;;;;;;9.88;4.30;;;;;;;;;;5081439;28;20233;-19
2022/05/15 00:04:08;;;;;;;11.68;4.30;;;;;;;;;;5080870;28;20237;-20
2022/05/15 00:06:35;;;;;;;9.55;4.30;;;;;;;;;;5083567;28;20239;-20
2022/05/15 00:09:03;;;;;;;12.30;4.22;;;;;;;;;;5075412;28;20218;-19
2022/05/15 00:11:30;;;;;;;12.18;4.30;;;;;;;;;;5079496;28;20696;-20
2022/05/15 00:13:57;;;;;;;11.88;4.28;;;;;;;;;;5078288;28;20244;-20
2022/05/15 00:16:25;;;;;;;10.80;3.95;;;;;;;;;;5080453;28;20243;-19
2022/05/15 00:18:53;;;;;;;12.75;4.47;;;;;;;;;;5084163;28;20643;-19
2022/05/15 00:21:21;;;;;;;9.48;4.15;;;;;;;;;;5075705;28;20225;-19
2022/05/15 00:23:48;;;;;;;12.52;4.38;;;;;;;;;;5081445;28;20716;-19
2022/05/15 00:26:15;;;;;;;13.35;4.55;;;;;;;;;;5081939;28;20311;-19
2022/05/15 00:28:43;;;;;;;11.45;4.57;;;;;;;;;;5080412;28;20232;-19
2022/05/15 00:31:10;;;;;;;10.98;4.50;;;;;;;;;;5083083;28;20233;-20
2022/05/15 00:33:38;;;;;;;10.27;4.03;;;;;;;;;;5078094;28;20232;-19
2022/05/15 00:36:06;;;;;;;11.25;3.85;;;;;;;;;;5083213;28;20221;-20
2022/05/15 00:38:34;;;;;;;14.05;4.47;;;;;;;;;;5083267;28;21072;-19
2022/05/15 00:41:01;;;;;;;12.30;4.22;;;;;;;;;;5075655;28;20240;-19
2022/05/15 00:43:37;;;;;;;12.88;4.82;;;;;;;;;;5075356;28;20705;-20
2022/05/15 00:46:05;;;;;;;12.32;5.38;;;;;;;;;;5075752;28;20240;-20
2022/05/15 00:48:33;;;;;;;12.85;4.57;;;;;;;;;;5075662;28;20225;-19
2022/05/15 00:51:00;;;;;;;17.42;4.97;;;;;;;;;;5082582;28;20620;-19
2022/05/15 00:53:29;;;;;;;12.30;4.82;;;;;;;;;;5079614;28;20229;-20
2022/05/15 00:55:57;;;;;;;11.23;4.63;;;;;;;;;;5080898;28;20237;-19
2022/05/15 00:58:26;;;;;;;11.95;4.30;;;;;;;;;;5079154;28;20586;-20
2022/05/15 01:00:53;;;;;;;10.75;4.50;;;;;;;;;;5083290;28;20723;-18
2022/05/15 01:03:21;;;;;;;11.50;4.03;;;;;;;;;;5081165;28;20232;-19
2022/05/15 01:05:49;;;;;;;11.70;4.40;;;;;;;;;;5080312;28;21172;-19
2022/05/15 01:08:20;;;;;;;11.60;4.57;;;;;;;;;;5081315;28;20313;-19
2022/05/15 01:10:49;;;;;;;12.90;4.80;;;;;;;;;;5078957;28;20237;-19
2022/05/15 01:13:17;;;;;;;10.75;4.72;;;;;;;;;;5078147;28;20236;-19
2022/05/15 01:15:44;;;;;;;15.90;5.18;;;;;;;;;;5078472;28;20799;-19
2022/05/15 01:18:11;;;;;;;12.05;4.10;;;;;;;;;;5079971;28;20233;-19
2022/05/15 01:20:39;;;;;;;12.15;4.88;;;;;;;;;;5076080;28;20757;-19
2022/05/15 01:23:08;;;;;;;11.27;4.25;;;;;;;;;;5075117;28;20247;-19
2022/05/15 01:25:36;;;;;;;13.57;4.25;;;;;;;;;;5074921;28;20220;-19
2022/05/15 01:28:05;;;;;;;14.77;4.65;;;;;;;;;;5079389;28;20238;-18
2022/05/15 01:30:32;;;;;;;11.23;4.22;;;;;;;;;;5075277;28;20221;-19
2022/05/15 01:33:00;;;;;;;11.82;4.43;;;;;;;;;;5082289;28;21029;-19
2022/05/15 01:35:27;;;;;;;11.90;4.35;;;;;;;;;;5077904;28;20229;-19
2022/05/15 01:37:58;;;;;;;10.90;4.50;;;;;;;;;;5078104;28;20233;-19
2022/05/15 01:40:26;;;;;;;12.00;4.53;;;;;;;;;;5079415;28;20235;-18
2022/05/15 01:42:54;;;;;;;11.40;4.20;;;;;;;;;;5082792;28;20621;-19
2022/05/15 01:45:21;;;;;;;11.05;4.70;;;;;;;;;;5080359;28;20243;-19
2022/05/15 01:47:49;;;;;;;11.98;3.75;;;;;;;;;;5077541;28;20226;-19
2022/05/15 01:50:16;;;;;;;12.05;4.25;;;;;;;;;;5080605;28;20236;-19
2022/05/15 01:52:44;;;;;;;11.45;4.15;;;;;;;;;;5079804;28;20240;-19
2022/05/15 01:55:12;;;;;;;12.85;4.32;;;;;;;;;;5082666;28;20240;-18
2022/05/15 01:57:41;;;;;;;11.98;4.50;;;;;;;;;;5082091;28;20725;-19
2022/05/15 02:00:09;;;;;;;13.50;4.95;;;;;;;;;;5082427;28;20233;-18
2022/05/15 02:02:38;;;;;;;12.75;4.72;;;;;;;;;;5085570;28;20282;-19
2022/05/15 02:05:06;;;;;;;12.38;4.63;;;;;;;;;;5089275;28;20796;-19
2022/05/15 02:07:34;;;;;;;8.95;4.20;;;;;;;;;;5081429;28;20260;-20
2022/05/15 02:10:01;;;;;;;12.43;4.63;;;;;;;;;;5078666;28;20345;-19
2022/05/15 02:12:28;;;;;;;12.10;4.32;;;;;;;;;;5084829;28;20730;-19
2022/05/15 02:14:57;;;;;;;13.15;4.53;;;;;;;;;;5082559;28;20232;-19
2022/05/15 02:17:24;;;;;;;11.20;4.53;;;;;;;;;;5081272;28;20607;-18
2022/05/15 02:19:52;;;;;;;14.05;5.07;;;;;;;;;;5084201;28;20225;-18
2022/05/15 02:22:19;;;;;;;13.00;4.88;;;;;;;;;;5079137;28;20626;-18
2022/05/15 02:24:46;;;;;;;12.65;5.05;;;;;;;;;;5083936;28;20237;-19
2022/05/15 02:27:14;;;;;;;12.15;4.15;;;;;;;;;;5086159;28;20223;-19
2022/05/15 02:29:42;;;;;;;11.32;4.53;;;;;;;;;;5081495;28;20906;-19
2022/05/15 02:32:10;;;;;;;13.60;4.43;;;;;;;;;;5085546;28;20233;-19
2022/05/15 02:34:38;;;;;;;15.00;4.40;;;;;;;;;;5082902;28;20289;-20
2022/05/15 02:37:05;;;;;;;11.60;4.15;;;;;;;;;;5084124;28;20241;-19
2022/05/15 02:39:32;;;;;;;11.57;4.43;;;;;;;;;;5077268;28;20241;-19
2022/05/15 02:42:01;;;;;;;17.95;4.50;;;;;;;;;;5080020;28;20260;-19
2022/05/15 02:44:29;;;;;;;10.95;4.80;;;;;;;;;;5081970;28;20240;-18
2022/05/15 02:46:56;;;;;;;12.40;4.65;;;;;;;;;;5076743;28;20229;-18
2022/05/15 02:52:09;;;;;;;15.40;4.97;;;;;;;;;;5075350;28;20966;-19
2022/05/15 02:54:37;;;;;;;9.10;4.22;;;;;;;;;;5079689;28;20716;-19
2022/05/15 02:57:04;;;;;;;11.55;4.80;;;;;;;;;;5083183;28;20291;-19
2022/05/15 02:59:32;;;;;;;12.57;4.10;;;;;;;;;;5077100;28;20239;-18
2022/05/15 03:01:59;;;;;;;14.43;4.65;;;;;;;;;;5078993;28;20649;-18
2022/05/15 03:04:28;;;;;;;9.63;3.83;;;;;;;;;;5080658;28;20232;-18
2022/05/15 03:06:55;;;;;;;14.25;4.68;;;;;;;;;;5080043;28;20229;-18
2022/05/15 03:09:23;;;;;;;11.85;4.43;;;;;;;;;;5085288;28;20224;-18
2022/05/15 03:11:50;;;;;;;12.23;4.30;;;;;;;;;;5082713;28;20466;-19
2022/05/15 03:14:17;;;;;;;11.48;3.97;;;;;;;;;;5084278;28;20229;-19
2022/05/15 03:16:45;;;;;;;12.70;4.20;;;;;;;;;;5082859;28;20232;-19
2022/05/15 03:19:12;;;;;;;10.55;4.38;;;;;;;;;;5081900;28;20383;-19
2022/05/15 03:21:41;;;;;;;8.45;4.15;;;;;;;;;;5083614;28;20968;-19
2022/05/15 03:24:09;;;;;;;9.85;4.00;;;;;;;;;;5080018;28;20237;-19
2022/05/15 03:26:38;;;;;;;11.65;4.53;;;;;;;;;;5078322;28;20355;-18
2022/05/15 03:29:06;;;;;;;10.70;4.40;;;;;;;;;;5084139;28;20236;-19
2022/05/15 03:31:35;;;;;;;12.73;4.60;;;;;;;;;;5079307;28;20233;-19
2022/05/15 03:34:02;;;;;;;10.70;4.68;;;;;;;;;;5076891;28;21084;-19
2022/05/15 03:36:30;;;;;;;11.05;4.10;;;;;;;;;;5080493;28;20229;-19
2022/05/15 03:38:58;;;;;;;10.05;3.90;;;;;;;;;;5083994;28;20605;-19
2022/05/15 03:41:27;;;;;;;15.20;4.25;;;;;;;;;;5081063;28;20226;-19
2022/05/15 03:43:55;;;;;;;10.55;4.28;;;;;;;;;;5082847;28;20247;-19
2022/05/15 03:46:22;;;;;;;12.23;4.00;;;;;;;;;;5079270;28;20680;-19
2022/05/15 03:48:50;;;;;;;12.60;4.30;;;;;;;;;;5082374;28;20256;-19
2022/05/15 03:51:17;;;;;;;12.18;4.25;;;;;;;;;;5079436;28;20240;-19
2022/05/15 03:53:44;;;;;;;11.13;4.07;;;;;;;;;;5082847;28;20226;-19
2022/05/15 03:56:13;;;;;;;10.02;4.13;;;;;;;;;;5077450;28;20226;-19
2022/05/15 03:58:40;;;;;;;7.55;3.58;;;;;;;;;;5075553;28;20916;-19
2022/05/15 04:01:08;;;;;;;9.80;4.30;;;;;;;;;;5072787;28;20229;-19
2022/05/15 04:03:35;;;;;;;11.07;4.03;;;;;;;;;;5076890;28;21032;-18
2022/05/15 04:06:03;;;;;;;11.60;4.50;;;;;;;;;;5076053;28;20233;-18
2022/05/15 04:08:30;;;;;;;11.88;3.42;;;;;;;;;;5066458;28;20264;-18
2022/05/15 04:10:57;;;;;;;7.85;3.25;;;;;;;;;;5075910;28;20773;-19
2022/05/15 04:13:26;;;;;;;13.75;3.72;;;;;;;;;;5079635;28;20232;-19
2022/05/15 04:15:54;;;;;;;9.07;3.40;;;;;;;;;;5077856;28;20241;-19
2022/05/15 04:18:21;;;;;;;10.40;3.95;;;;;;;;;;5068922;28;20240;-19
2022/05/15 04:20:48;;;;;;;8.82;4.07;;;;;;;;;;5076867;28;20232;-19
2022/05/15 04:23:16;;;;;;;9.10;3.42;;;;;;;;;;5074973;28;21306;-19
2022/05/15 04:25:43;;;;;;;10.95;4.45;;;;;;;;;;5073435;28;20229;-19
2022/05/15 04:28:10;;;;;;;13.35;4.50;;;;;;;;;;5072957;28;20989;-19
2022/05/15 04:30:39;;;;;;;15.10;4.80;;;;;;;;;;5072880;28;20229;-19
2022/05/15 04:33:07;;;;;;;10.65;4.07;;;;;;;;;;5072790;28;20721;-19
2022/05/15 04:35:34;;;;;;;11.05;4.07;;;;;;;;;;5071751;28;20233;-18
2022/05/15 04:38:01;;;;;;;9.68;3.67;;;;;;;;;;5072281;28;20252;-19
2022/05/15 04:40:29;;;;;;;8.45;3.47;;;;;;;;;;5072541;28;20652;-19
2022/05/15 04:42:56;;;;;;;10.32;3.83;;;;;;;;;;5082096;28;20236;-19
2022/05/15 04:45:23;;;;;;;12.02;4.63;;;;;;;;;;5078686;28;20251;-19
2022/05/15 04:47:52;;;;;;;9.88;4.10;;;;;;;;;;5077204;28;20229;-19
2022/05/15 04:50:19;;;;;;;8.65;3.38;;;;;;;;;;5079126;28;20520;-19
2022/05/15 04:52:47;;;;;;;10.50;3.90;;;;;;;;;;5076137;28;20233;-19
2022/05/15 04:55:14;;;;;;;11.00;4.65;;;;;;;;;;5081751;28;20220;-19
2022/05/15 04:57:42;;;;;;;9.13;3.42;;;;;;;;;;5080245;28;20248;-19
2022/05/15 05:00:10;;;;;;;8.02;3.28;;;;;;;;;;5067864;28;20965;-19
2022/05/15 05:02:38;;;;;;;17.90;4.20;;;;;;;;;;5074443;28;20240;-18
2022/05/15 05:05:11;;;;;;;10.80;3.83;;;;;;;;;;5073824;28;20316;-19
2022/05/15 05:07:38;;;;;;;16.08;4.30;;;;;;;;;;5074357;28;20228;-18
2022/05/15 05:10:06;;;;;;;11.55;4.05;;;;;;;;;;5076292;28;21001;-19
2022/05/15 05:12:33;;;;;;;11.70;3.80;;;;;;;;;;5072053;28;20224;-18
2022/05/15 05:15:01;;;;;;;14.65;4.15;;;;;;;;;;5078201;28;20254;-19
2022/05/15 05:17:28;;;;;;;8.70;3.95;;;;;;;;;;5076419;28;20226;-19
2022/05/15 05:19:55;;;;;;;12.40;3.83;;;;;;;;;;5081649;28;20582;-19
2022/05/15 05:22:24;;;;;;;17.27;4.32;;;;;;;;;;5075225;28;20238;-19
2022/05/15 05:24:51;;;;;;;7.90;3.60;;;;;;;;;;5076613;28;20236;-19
2022/05/15 05:27:20;;;;;;;18.92;4.03;;;;;;;;;;5079798;28;20277;-19
2022/05/15 05:29:47;;;;;;;12.88;3.65;;;;;;;;;;5054275;28;20236;-19
2022/05/15 05:32:14;;;;;;;7.88;3.30;;;;;;;;;;5069925;28;20235;-19
2022/05/15 05:34:42;;;;;;;14.23;3.85;;;;;;;;;;5078391;28;20255;-19
2022/05/15 05:37:09;;;;;;;9.63;3.25;;;;;;;;;;5072847;28;20243;-18
2022/05/15 05:39:38;;;;;;;11.07;3.83;;;;;;;;;;5075673;28;20272;-19
2022/05/15 05:42:06;;;;;;;10.40;3.65;;;;;;;;;;5077585;28;20256;-19
2022/05/15 05:44:33;;;;;;;11.55;4.03;;;;;;;;;;5073538;28;20269;-19
2022/05/15 05:47:00;;;;;;;10.90;3.85;;;;;;;;;;5078235;28;20259;-19
2022/05/15 05:49:28;;;;;;;9.93;3.80;;;;;;;;;;5079465;28;20214;-19
2022/05/15 05:51:55;;;;;;;10.10;3.53;;;;;;;;;;5074863;28;20233;-19
2022/05/15 05:54:22;;;;;;;15.30;3.85;;;;;;;;;;5078330;28;20240;-19
2022/05/15 05:56:51;;;;;;;15.23;3.70;;;;;;;;;;5071113;28;20272;-19
2022/05/15 05:59:18;;;;;;;16.40;3.70;;;;;;;;;;5074968;28;20241;-19
2022/05/15 06:01:45;;;;;;;13.68;4.10;;;;;;;;;;5072522;28;20248;-19
2022/05/15 06:06:58;;;;;;;10.02;3.22;;;;;;;;;;5070685;28;20225;-19
2022/05/15 06:09:25;;;;;;;10.63;3.97;;;;;;;;;;5068746;28;20304;-19
2022/05/15 06:11:54;;;;;;;13.38;3.85;;;;;;;;;;5063588;28;20237;-19
2022/05/15 06:14:21;;;;;;;9.98;3.80;;;;;;;;;;5069756;28;20234;-19
2022/05/15 06:16:48;;;;;;;11.88;3.47;;;;;;;;;;5072196;28;20230;-19
2022/05/15 06:19:16;;;;;;;12.15;3.83;;;;;;;;;;5068083;28;20252;-19
2022/05/15 06:21:44;;;;;;;11.70;3.70;;;;;;;;;;5069700;28;20234;-19
2022/05/15 06:24:12;;;;;;;14.77;3.75;;;;;;;;;;5071365;28;20241;-19
2022/05/15 06:26:39;;;;;;;9.48;3.35;;;;;;;;;;5077434;28;20228;-19
2022/05/15 06:29:08;;;;;;;8.98;3.65;;;;;;;;;;5076685;28;20272;-19
2022/05/15 06:31:35;;;;;;;11.35;3.53;;;;;;;;;;5065881;28;20234;-19
2022/05/15 06:34:02;;;;;;;9.15;3.70;;;;;;;;;;5067976;28;20268;-19
2022/05/15 06:36:30;;;;;;;8.25;2.85;;;;;;;;;;5069931;28;20339;-19
2022/05/15 06:38:57;;;;;;;10.48;3.65;;;;;;;;;;5074051;28;20236;-19
2022/05/15 06:41:24;;;;;;;12.88;3.85;;;;;;;;;;5071341;28;20661;-18
2022/05/15 06:43:52;;;;;;;8.20;3.53;;;;;;;;;;5068333;28;20238;-19
2022/05/15 06:46:21;;;;;;;10.05;3.28;;;;;;;;;;5069014;28;20844;-19
2022/05/15 06:48:49;;;;;;;10.27;3.85;;;;;;;;;;5077412;28;20230;-19
2022/05/15 06:51:16;;;;;;;10.93;3.97;;;;;;;;;;5080840;28;20234;-19
2022/05/15 06:53:44;;;;;;;14.27;3.92;;;;;;;;;;5075625;28;20229;-19
2022/05/15 06:58:56;;;;;;;10.98;3.65;;;;;;;;;;5071438;28;20243;-19
2022/05/15 07:01:25;;;;;;;7.57;3.17;;;;;;;;;;5081031;28;20241;-19
2022/05/15 07:03:52;;;;;;;8.27;3.35;;;;;;;;;;5071703;28;21055;-18
2022/05/15 07:06:19;;;;;;;11.52;3.72;;;;;;;;;;5080134;28;20234;-18
2022/05/15 07:08:48;;;;;;;11.45;3.85;;;;;;;;;;5079823;28;20230;-19
2022/05/15 07:11:15;;;;;;;10.93;3.35;;;;;;;;;;5078148;28;20241;-19
2022/05/15 07:13:42;;;;;;;10.60;3.67;;;;;;;;;;5083670;28;20224;-19
2022/05/15 07:16:11;;;;;;;12.82;3.88;;;;;;;;;;5078051;28;20645;-19
2022/05/15 07:18:41;;;;;;;11.82;3.67;;;;;;;;;;5080508;28;20239;-19
2022/05/15 07:21:08;;;;;;;10.43;3.10;;;;;;;;;;5068773;28;20245;-19
2022/05/15 07:23:35;;;;;;;11.65;3.50;;;;;;;;;;5077507;28;20612;-19
2022/05/15 07:26:03;;;;;;;10.32;3.72;;;;;;;;;;5071724;28;20720;-18
2022/05/15 07:28:30;;;;;;;17.08;4.10;;;;;;;;;;5072754;28;20732;-19
2022/05/15 07:30:57;;;;;;;12.85;3.35;;;;;;;;;;5076232;28;20236;-19
2022/05/15 07:33:26;;;;;;;9.63;3.83;;;;;;;;;;5075949;28;20237;-19
2022/05/15 07:35:55;;;;;;;15.05;3.83;;;;;;;;;;5076857;28;20233;-19
2022/05/15 07:38:22;;;;;;;12.45;3.53;;;;;;;;;;5076687;28;20230;-18
2022/05/15 07:40:49;;;;;;;12.32;3.85;;;;;;;;;;5078025;28;20241;-19
2022/05/15 07:43:17;;;;;;;13.73;3.60;;;;;;;;;;5076861;28;20229;-18
2022/05/15 07:45:44;;;;;;;12.48;3.55;;;;;;;;;;5078472;28;20236;-18
2022/05/15 07:48:12;;;;;;;17.58;3.75;;;;;;;;;;5065194;28;20229;-18
2022/05/15 07:50:40;;;;;;;8.18;3.70;;;;;;;;;;5066972;28;20225;-18
2022/05/15 07:53:09;;;;;;;14.23;3.50;;;;;;;;;;5076634;28;20222;-18
2022/05/15 07:55:36;;;;;;;10.23;3.80;;;;;;;;;;5077595;28;20225;-18
2022/05/15 07:58:04;;;;;;;14.32;3.03;;;;;;;;;;5078875;28;21069;-18
2022/05/15 08:00:31;;;;;;;12.15;3.28;;;;;;;;;;5071529;28;20246;-18
2022/05/15 08:03:02;;;;;;;15.82;3.28;;;;;;;;;;5065164;28;20232;-18
2022/05/15 08:08:16;;;;;;;19.02;3.72;;;;;;;;;;5081494;28;20231;-19
2022/05/15 08:10:44;;;;;;;20.23;3.47;;;;;;;;;;5074004;28;20237;-18
2022/05/15 08:13:12;;;;;;;16.20;3.67;;;;;;;;;;5071393;28;20233;-18
2022/05/15 08:15:40;;;;;;;22.42;3.67;;;;;;;;;;5080196;28;20237;-18
2022/05/15 08:23:37;;;;;;;15.55;3.53;;;;;;;;;;5076583;28;20805;-18
2022/05/15 08:26:06;;;;;;;12.90;3.50;;;;;;;;;;5081295;28;20259;-19
2022/05/15 08:28:33;;;;;;;16.38;3.95;;;;;;;;;;5076715;28;20237;-18
2022/05/15 08:31:01;;;;;;;12.70;3.60;;;;;;;;;;5083779;28;20237;-18
2022/05/15 08:33:30;;;;;;;9.52;3.22;;;;;;;;;;5078998;28;20607;-19
2022/05/15 08:35:57;;;;;;;14.40;3.13;;;;;;;;;;5082648;28;20224;-19
2022/05/15 08:38:25;;;;;;;8.05;3.25;;;;;;;;;;5080255;28;20228;-19
2022/05/15 08:40:56;;;;;;;10.15;3.63;;;;;;;;;;5082114;28;20229;-18
2022/05/15 08:43:24;;;;;;;9.23;3.22;;;;;;;;;;5080190;28;20225;-18
2022/05/15 08:45:53;;;;;;;12.52;3.20;;;;;;;;;;5086283;28;20228;-18
2022/05/15 08:48:20;;;;;;;7.75;3.15;;;;;;;;;;5080404;28;20306;-19
2022/05/15 08:50:50;;;;;;;8.20;3.58;;;;;;;;;;5084040;28;20237;-19
2022/05/15 08:53:19;;;;;;;7.75;3.28;;;;;;;;;;5079043;28;20217;-18
2022/05/15 08:55:48;;;;;;;8.30;3.45;;;;;;;;;;5083760;28;20229;-19
2022/05/15 08:58:19;;;;;;;13.93;3.03;;;;;;;;;;5080876;28;20244;-18
2022/05/15 09:00:47;;;;;;;6.32;2.65;;;;;;;;;;5079158;28;20229;-18
2022/05/15 09:03:16;;;;;;;8.65;3.00;;;;;;;;;;5081297;28;20225;-18
2022/05/15 09:05:46;;;;;;;8.68;3.30;;;;;;;;;;5079433;28;20232;-19
2022/05/15 09:08:18;;;;;;;5.03;2.42;;;;;;;;;;5081855;28;20235;-18
2022/05/15 09:10:47;;;;;;;9.93;3.40;;;;;;;;;;5080755;28;20234;-18
2022/05/15 09:13:20;;;;;;;6.70;3.05;;;;;;;;;;5080911;28;20228;-18
2022/05/15 09:15:50;;;;;;;10.93;3.50;;;;;;;;;;5080260;28;20313;-19
2022/05/15 09:18:18;;;;;;;6.88;2.65;;;;;;;;;;5082927;28;20724;-18
2022/05/15 09:20:49;;;;;;;9.60;3.53;;;;;;;;;;5081538;28;20229;-19
2022/05/15 09:23:20;;;;;;;7.25;2.65;;;;;;;;;;5080082;28;20249;-18
2022/05/15 09:25:50;;;;;;;9.00;3.28;;;;;;;;;;5081057;28;20229;-18
2022/05/15 09:28:19;;;;;;;7.50;3.03;;;;;;;;;;5079811;28;20229;-18
2022/05/15 09:30:47;;;;;;;6.90;3.10;;;;;;;;;;5081138;28;20611;-18
2022/05/15 09:33:22;;;;;;;10.48;3.42;;;;;;;;;;5080277;28;20225;-19
2022/05/15 09:35:49;;;;;;;5.10;2.92;;;;;;;;;;5080720;28;20221;-19
2022/05/15 09:38:29;;;;;;;7.88;3.42;;;;;;;;;;5077644;28;20232;-19
2022/05/15 09:43:52;;;;;;;8.45;3.15;;;;;;;;;;5060178;28;20228;-19
2022/05/15 09:46:20;;;;;;;8.65;3.03;;;;;;;;;;5080800;28;20336;-19
2022/05/15 09:48:50;;;;;;;8.05;3.63;;;;;;;;;;5079586;28;21059;-19
2022/05/15 09:51:23;;;;;;;5.57;2.80;;;;;;;;;;5081247;28;20225;-18
2022/05/15 09:53:50;;;;;;;5.75;2.80;;;;;;;;;;5080439;28;20232;-19
2022/05/15 09:56:23;;;;;;;7.38;3.13;;;;;;;;;;5078906;28;20239;-18
2022/05/15 09:58:54;;;;;;;9.13;3.08;;;;;;;;;;5080889;28;20230;-19
2022/05/15 10:01:23;;;;;;;10.15;3.15;;;;;;;;;;5081488;28;20247;-19
2022/05/15 10:03:52;;;;;;;9.32;3.17;;;;;;;;;;5079228;28;20232;-19
2022/05/15 10:06:20;;;;;;;9.07;3.35;;;;;;;;;;5080626;28;20237;-18
2022/05/15 10:08:52;;;;;;;8.57;3.30;;;;;;;;;;5080583;28;20228;-18
2022/05/15 10:11:20;;;;;;;7.47;3.20;;;;;;;;;;5078485;28;20668;-19
2022/05/15 10:13:50;;;;;;;9.70;3.47;;;;;;;;;;5080524;28;20240;-18
2022/05/15 10:16:20;;;;;;;6.22;3.08;;;;;;;;;;5083984;28;20237;-18
2022/05/15 10:18:48;;;;;;;8.00;2.85;;;;;;;;;;5085735;28;20803;-18
2022/05/15 10:21:16;;;;;;;9.07;3.28;;;;;;;;;;5083446;28;20241;-17
2022/05/15 10:23:49;;;;;;;10.30;3.22;;;;;;;;;;5083445;28;20241;-20
2022/05/15 10:26:18;;;;;;;8.13;3.30;;;;;;;;;;5084055;28;20711;-17
2022/05/15 10:28:47;;;;;;;8.82;3.30;;;;;;;;;;5082574;28;20327;-20
2022/05/15 10:31:16;;;;;;;9.43;3.35;;;;;;;;;;5084231;28;20993;-19
2022/05/15 10:33:47;;;;;;;8.90;3.13;;;;;;;;;;5082225;28;20229;-20
2022/05/15 10:36:32;;;;;;;11.80;3.55;;;;;;;;;;5084514;28;20232;-19
2022/05/15 10:39:02;;;;;;;7.10;2.88;;;;;;;;;;5084744;28;20311;-20
2022/05/15 10:41:31;;;;;;;5.90;2.60;;;;;;;;;;5081347;28;20271;-20
2022/05/15 10:44:03;;;;;;;8.73;3.47;;;;;;;;;;5084054;28;20221;-20
2022/05/15 10:46:33;;;;;;;8.38;3.28;;;;;;;;;;5084866;28;20235;-20
2022/05/15 10:49:07;;;;;;;7.22;2.80;;;;;;;;;;5081676;28;20712;-20
2022/05/15 10:51:35;;;;;;;7.95;3.58;;;;;;;;;;5078114;28;20316;-20
2022/05/15 10:59:44;;;;;;;8.75;3.08;;;;;;;;;;5083318;28;20225;-18
2022/05/15 11:02:18;;;;;;;9.60;3.00;;;;;;;;;;5082077;28;20233;-20
2022/05/15 11:04:48;;;;;;;10.00;2.88;;;;;;;;;;5083477;28;20228;-18
2022/05/15 11:07:16;;;;;;;5.55;2.85;;;;;;;;;;5076901;28;20290;-18
2022/05/15 11:09:46;;;;;;;8.73;3.40;;;;;;;;;;5080870;28;20253;-18
2022/05/15 11:12:35;;;;;;;6.93;3.00;;;;;;;;;;5077630;28;20253;-20
2022/05/15 11:15:05;;;;;;;10.38;3.20;;;;;;;;;;5080892;28;20688;-20
2022/05/15 11:17:34;;;;;;;6.60;3.05;;;;;;;;;;5079802;28;20229;-20
2022/05/15 11:20:05;;;;;;;9.90;2.97;;;;;;;;;;5072070;28;20231;-21
2022/05/15 11:22:34;;;;;;;9.63;3.63;;;;;;;;;;5076603;28;20236;-17
2022/05/15 11:25:04;;;;;;;9.98;3.20;;;;;;;;;;5076938;28;20368;-20
2022/05/15 11:27:34;;;;;;;7.47;2.97;;;;;;;;;;5075675;28;20233;-19
2022/05/15 11:30:03;;;;;;;7.45;3.22;;;;;;;;;;5080852;28;20230;-20
2022/05/15 11:32:32;;;;;;;8.55;3.05;;;;;;;;;;5080780;28;20831;-20
2022/05/15 11:35:06;;;;;;;11.23;3.25;;;;;;;;;;5080973;28;20705;-19
2022/05/15 11:37:41;;;;;;;13.27;3.40;;;;;;;;;;5077181;28;20236;-20
2022/05/15 11:40:09;;;;;;;7.55;3.00;;;;;;;;;;5077463;28;20224;-19
2022/05/15 11:42:36;;;;;;;6.35;2.78;;;;;;;;;;5081091;28;20263;-19
2022/05/15 11:45:20;;;;;;;9.20;3.28;;;;;;;;;;5083397;28;20225;-20
2022/05/15 11:47:57;;;;;;;6.22;2.97;;;;;;;;;;5079904;28;20229;-20
2022/05/15 11:50:32;;;;;;;9.48;2.80;;;;;;;;;;5079748;28;20243;-19
2022/05/15 11:53:04;;;;;;;7.10;2.60;;;;;;;;;;5080969;28;20232;-19
2022/05/15 11:55:46;;;;;;;8.65;2.90;;;;;;;;;;5076576;28;20226;-20
2022/05/15 11:58:30;;;;;;;8.38;2.88;;;;;;;;;;5077660;28;20839;-19
2022/05/15 12:01:08;;;;;;;7.45;3.22;;;;;;;;;;5076071;28;20978;-19
2022/05/15 12:03:47;;;;;;;7.50;2.95;;;;;;;;;;5081353;28;20312;-19
2022/05/15 12:06:17;;;;;;;7.20;3.13;;;;;;;;;;5081976;28;20241;-19
2022/05/15 12:08:45;;;;;;;7.15;2.70;;;;;;;;;;5082684;28;20240;-19
2022/05/15 12:11:13;;;;;;;9.13;3.33;;;;;;;;;;5079036;28;20233;-19
2022/05/15 12:13:42;;;;;;;7.55;2.95;;;;;;;;;;5080976;28;20233;-19
2022/05/15 12:16:14;;;;;;;6.05;2.83;;;;;;;;;;5083705;28;21087;-19
2022/05/15 12:18:42;;;;;;;8.18;2.80;;;;;;;;;;5083608;28;20229;-19
2022/05/15 12:21:09;;;;;;;8.30;3.17;;;;;;;;;;5082920;28;20343;-19
2022/05/15 12:24:26;;;;;;;8.93;2.70;;;;;;;;;;5079338;28;20343;-20
2022/05/15 12:26:30;;;;;;;5.82;2.50;;;;;;;;;;5080327;28;20221;-19
2022/05/15 12:28:59;;;;;;;6.70;2.85;;;;;;;;;;5083281;28;20220;-19
2022/05/15 12:31:29;;;;;;;4.78;2.75;;;;;;;;;;5075144;28;20327;-19
2022/05/15 12:34:07;;;;;;;5.65;2.70;;;;;;;;;;5075844;28;20232;-19
2022/05/15 12:36:35;;;;;;;7.68;3.17;;;;;;;;;;5079237;28;20233;-19
2022/05/15 12:39:04;;;;;;;6.20;2.70;;;;;;;;;;5075956;28;20221;-19
2022/05/15 12:41:35;;;;;;;6.82;2.83;;;;;;;;;;5079588;28;20778;-19
2022/05/15 12:44:03;;;;;;;8.25;2.80;;;;;;;;;;5076220;28;20744;-19
2022/05/15 12:46:31;;;;;;;7.30;2.83;;;;;;;;;;5082078;28;20601;-19
2022/05/15 12:48:59;;;;;;;6.90;2.72;;;;;;;;;;5079846;28;20233;-19
2022/05/15 12:51:27;;;;;;;5.22;2.25;;;;;;;;;;5082848;28;20224;-19
2022/05/15 12:53:54;;;;;;;7.35;2.65;;;;;;;;;;5080520;28;20221;-19
2022/05/15 12:56:25;;;;;;;5.63;2.85;;;;;;;;;;5078796;28;20235;-19
2022/05/15 12:58:54;;;;;;;6.28;2.33;;;;;;;;;;5082194;28;20236;-19
2022/05/15 13:01:21;;;;;;;6.10;2.70;;;;;;;;;;5082140;28;20233;-19
2022/05/15 13:03:49;;;;;;;8.85;2.88;;;;;;;;;;5083010;28;20272;-19
2022/05/15 13:06:18;;;;;;;6.70;2.97;;;;;;;;;;5081362;28;20229;-19
2022/05/15 13:08:46;;;;;;;6.82;2.92;;;;;;;;;;5080931;28;20217;-20
2022/05/15 13:11:16;;;;;;;7.25;2.50;;;;;;;;;;5082975;28;20320;-19
2022/05/15 13:13:44;;;;;;;6.35;2.45;;;;;;;;;;5082167;28;20985;-19
2022/05/15 13:16:15;;;;;;;6.00;2.63;;;;;;;;;;5080118;28;20240;-19
2022/05/15 13:18:44;;;;;;;6.50;2.78;;;;;;;;;;5080603;28;20229;-19
2022/05/15 13:21:14;;;;;;;8.88;3.00;;;;;;;;;;5080225;28;20261;-19
2022/05/15 13:23:42;;;;;;;5.70;2.67;;;;;;;;;;5077933;28;20627;-19
2022/05/15 13:26:10;;;;;;;7.72;2.55;;;;;;;;;;5077563;28;20239;-19
2022/05/15 13:28:38;;;;;;;7.97;2.65;;;;;;;;;;5077728;28;20246;-19
2022/05/15 13:31:11;;;;;;;7.28;2.47;;;;;;;;;;5082307;28;20727;-18
2022/05/15 13:33:43;;;;;;;5.40;2.35;;;;;;;;;;5077917;28;20240;-19
2022/05/15 13:36:12;;;;;;;8.82;2.70;;;;;;;;;;5082187;28;20910;-19
2022/05/15 13:44:06;;;;;;;6.18;2.47;;;;;;;;;;5071452;28;20244;-19
2022/05/15 13:46:36;;;;;;;6.53;2.60;;;;;;;;;;5082563;28;20231;-19
2022/05/15 13:49:04;;;;;;;7.05;2.90;;;;;;;;;;5074614;28;20231;-20
2022/05/15 13:51:36;;;;;;;5.50;2.40;;;;;;;;;;5079866;28;20256;-19
2022/05/15 13:54:11;;;;;;;7.43;2.90;;;;;;;;;;5078621;28;20225;-19
2022/05/15 13:56:42;;;;;;;9.48;3.22;;;;;;;;;;5081055;28;20221;-20
2022/05/15 13:59:28;;;;;;;4.75;2.28;;;;;;;;;;5085260;28;20224;-19
2022/05/15 14:02:07;;;;;;;6.68;2.67;;;;;;;;;;5081904;28;20235;-19
2022/05/15 14:04:38;;;;;;;6.93;2.35;;;;;;;;;;5079476;28;20299;-19
2022/05/15 14:07:06;;;;;;;5.72;2.40;;;;;;;;;;5085792;28;21048;-20
2022/05/15 14:09:44;;;;;;;5.55;2.60;;;;;;;;;;5081979;28;20227;-19
2022/05/15 14:12:13;;;;;;;6.45;2.38;;;;;;;;;;5078839;28;20236;-19
2022/05/15 14:14:41;;;;;;;9.73;2.95;;;;;;;;;;5083215;28;20240;-19
2022/05/15 14:17:10;;;;;;;8.05;2.50;;;;;;;;;;5084782;28;20236;-19
2022/05/15 14:19:46;;;;;;;6.10;2.47;;;;;;;;;;5085608;28;20228;-19
2022/05/15 14:22:14;;;;;;;8.07;2.85;;;;;;;;;;5081392;28;20244;-18
2022/05/15 14:24:41;;;;;;;5.35;2.70;;;;;;;;;;5082458;28;20688;-19
2022/05/15 14:27:08;;;;;;;5.63;2.28;;;;;;;;;;5085392;28;20226;-19
2022/05/15 14:29:39;;;;;;;5.50;2.28;;;;;;;;;;5085755;28;20236;-19
2022/05/15 14:32:07;;;;;;;8.65;2.78;;;;;;;;;;5082093;28;20245;-18
2022/05/15 14:34:36;;;;;;;6.90;2.55;;;;;;;;;;5084124;28;20233;-19
2022/05/15 14:37:03;;;;;;;5.15;2.30;;;;;;;;;;5077741;28;20281;-19
2022/05/15 14:39:31;;;;;;;5.07;2.00;;;;;;;;;;5080988;28;20735;-19
2022/05/15 14:41:59;;;;;;;7.45;2.50;;;;;;;;;;5081756;28;20235;-19
2022/05/15 14:44:26;;;;;;;5.43;2.08;;;;;;;;;;5080834;28;20237;-19
2022/05/15 14:46:55;;;;;;;7.00;2.28;;;;;;;;;;5083852;28;20309;-19
2022/05/15 14:49:22;;;;;;;6.57;2.45;;;;;;;;;;5082760;28;20227;-19
2022/05/15 14:52:00;;;;;;;8.35;2.72;;;;;;;;;;5085786;28;20267;-19
2022/05/15 14:54:27;;;;;;;7.53;2.25;;;;;;;;;;5084424;28;20232;-19
2022/05/15 14:56:54;;;;;;;7.70;2.15;;;;;;;;;;5080209;28;20716;-19
2022/05/15 14:59:22;;;;;;;6.32;2.40;;;;;;;;;;5082542;28;20628;-19
2022/05/15 15:01:50;;;;;;;5.78;2.50;;;;;;;;;;5086016;28;20234;-19
2022/05/15 15:04:17;;;;;;;4.97;2.63;;;;;;;;;;5083477;28;20239;-19
2022/05/15 15:06:45;;;;;;;7.88;2.30;;;;;;;;;;5081622;28;20264;-20
2022/05/15 15:09:13;;;;;;;4.80;2.00;;;;;;;;;;5080950;28;20213;-19
2022/05/15 15:11:45;;;;;;;6.45;2.17;;;;;;;;;;5084012;28;20232;-19
2022/05/15 15:14:12;;;;;;;6.00;2.33;;;;;;;;;;5081958;28;20236;-19
2022/05/15 15:16:41;;;;;;;9.25;2.53;;;;;;;;;;5084155;28;20221;-19